Time;durP1;ratioP1;P1;durP2;ratioP2;P2;SDS_P1;SDS_P2;PMS_P1;PMS_P2;Temp;Humidity;BMP_temperature;BMP_pressure;BME280_temperature;BME280_humidity;BME280_pressure;Samples;Min_cycle;Max_cycle;Signal;HPM_P1;HPM_P2
2023/01/03 00:02:21;;;;;;;9.75;5.22;;;;;;;4.93;100.00;102612.03;5045866;28;20049;-62
2023/01/03 00:04:46;;;;;;;9.80;4.70;;;;;;;4.95;100.00;102604.22;5047918;28;20022;-62
2023/01/03 00:07:11;;;;;;;10.13;5.15;;;;;;;4.95;100.00;102610.34;5047352;28;20803;-65
2023/01/03 00:09:37;;;;;;;8.30;4.93;;;;;;;4.94;100.00;102611.19;5047316;28;20056;-65
2023/01/03 00:14:46;;;;;;;14.23;5.43;;;;;;;4.92;100.00;102611.16;5047925;28;20499;-63
2023/01/03 00:17:12;;;;;;;10.38;4.80;;;;;;;4.91;100.00;102613.75;5046657;28;20025;-65
2023/01/03 00:19:42;;;;;;;12.90;4.60;;;;;;;4.91;100.00;102614.63;5029574;28;20108;-63
2023/01/03 00:22:09;;;;;;;10.27;4.60;;;;;;;4.87;100.00;102612.81;5047205;28;20024;-65
2023/01/03 00:24:34;;;;;;;12.13;5.00;;;;;;;4.87;100.00;102614.53;5047211;28;20032;-63
2023/01/03 00:26:59;;;;;;;10.55;4.40;;;;;;;4.86;100.00;102615.38;5046596;28;20035;-64
2023/01/03 00:29:25;;;;;;;10.95;5.13;;;;;;;4.78;100.00;102613.50;5046953;28;20104;-62
2023/01/03 00:31:50;;;;;;;12.63;4.75;;;;;;;4.76;100.00;102620.44;5045705;28;20033;-62
2023/01/03 00:34:16;;;;;;;17.48;5.38;;;;;;;4.71;100.00;102622.09;5047673;28;20092;-63
2023/01/03 00:36:41;;;;;;;11.88;4.30;;;;;;;4.68;100.00;102616.81;5047472;28;20476;-65
2023/01/03 00:39:06;;;;;;;13.13;5.25;;;;;;;4.65;100.00;102621.97;5050415;28;20108;-64
2023/01/03 00:41:32;;;;;;;9.73;4.97;;;;;;;4.62;100.00;102619.28;5033208;28;20039;-64
2023/01/03 00:43:58;;;;;;;11.05;5.78;;;;;;;4.61;100.00;102618.41;5051031;28;20455;-65
2023/01/03 00:46:23;;;;;;;10.45;5.45;;;;;;;4.57;100.00;102626.16;5050954;28;20024;-59
2023/01/03 00:48:49;;;;;;;13.50;5.65;;;;;;;4.52;100.00;102626.94;5032838;28;20021;-65
2023/01/03 00:51:20;;;;;;;11.45;4.78;;;;;;;4.47;100.00;102625.06;5050627;28;20035;-64
2023/01/03 00:53:47;;;;;;;7.63;5.05;;;;;;;4.45;100.00;102627.66;5050669;28;20115;-63
2023/01/03 00:56:15;;;;;;;9.32;5.80;;;;;;;4.42;100.00;102622.38;5050615;28;20045;-62
2023/01/03 00:58:41;;;;;;;9.77;6.32;;;;;;;4.36;100.00;102630.09;5049561;28;20032;-63
2023/01/03 01:01:10;;;;;;;9.95;5.82;;;;;;;4.34;100.00;102629.16;5050466;28;20029;-62
2023/01/03 01:03:36;;;;;;;;;;;;;;;4.36;100.00;102630.09;5050372;28;20029;-62
2023/01/03 01:06:16;;;;;;;10.90;6.05;;;;;;;4.35;100.00;102629.22;5051162;28;19919;-62
2023/01/03 01:08:42;;;;;;;13.32;6.35;;;;;;;4.37;100.00;102644.91;5051161;28;20027;-63
2023/01/03 01:11:08;;;;;;;12.45;5.88;;;;;;;4.36;100.00;102641.41;5050200;28;20467;-65
2023/01/03 01:13:34;;;;;;;12.50;6.40;;;;;;;4.34;100.00;102629.16;5049473;28;20078;-63
2023/01/03 01:16:05;;;;;;;13.10;5.95;;;;;;;4.32;100.00;102616.09;5049460;28;20057;-63
2023/01/03 01:18:31;;;;;;;13.82;6.38;;;;;;;4.29;100.00;102629.97;5049569;28;20352;-64
2023/01/03 01:20:56;;;;;;;10.25;5.85;;;;;;;4.20;100.00;102629.75;5050324;28;20100;-64
2023/01/03 01:23:22;;;;;;;8.77;6.05;;;;;;;4.10;100.00;102633.91;5050333;28;20178;-65
2023/01/03 01:25:47;;;;;;;16.13;6.18;;;;;;;4.02;100.00;102631.13;5051030;28;20028;-65
2023/01/03 01:28:12;;;;;;;10.48;5.97;;;;;;;3.98;100.00;102617.97;5050229;28;20371;-64
2023/01/03 01:30:38;;;;;;;9.65;6.40;;;;;;;3.92;100.00;102623.94;5050315;28;20016;-65
2023/01/03 01:33:03;;;;;;;12.73;6.13;;;;;;;3.86;100.00;102629.00;5059952;28;20032;-64
2023/01/03 01:35:28;;;;;;;7.78;5.57;;;;;;;3.83;100.00;102631.53;5070379;28;20025;-64
2023/01/03 01:37:55;;;;;;;13.70;6.00;;;;;;;3.82;100.00;102632.38;5068900;28;20029;-64
2023/01/03 01:40:21;;;;;;;12.05;5.95;;;;;;;3.78;100.00;102629.72;5069937;28;20550;-64
2023/01/03 01:45:30;;;;;;;12.00;6.43;;;;;;;3.77;100.00;102640.09;5070216;28;20051;-62
2023/01/03 01:47:59;;;;;;;15.07;6.65;;;;;;;3.76;100.00;102636.59;5068783;28;20028;-63
2023/01/03 01:50:48;;;;;;;10.20;6.43;;;;;;;3.76;100.00;102643.53;5051838;28;20467;-64
2023/01/03 01:53:13;;;;;;;9.40;6.55;;;;;;;3.75;100.00;102645.28;5070091;28;20032;-62
2023/01/03 01:55:54;;;;;;;17.27;7.13;;;;;;;3.79;100.00;102648.81;5051782;28;20048;-64
2023/01/03 01:58:21;;;;;;;16.42;7.72;;;;;;;3.85;100.00;102656.78;5052284;28;20690;-65
2023/01/03 02:00:46;;;;;;;14.35;7.50;;;;;;;3.92;100.00;102652.63;5046103;28;20028;-64
2023/01/03 02:03:12;;;;;;;19.17;8.43;;;;;;;4.02;100.00;102656.31;5068835;28;20041;-63
2023/01/03 02:05:42;;;;;;;15.10;7.55;;;;;;;4.05;100.00;102664.22;5069273;28;20064;-64
2023/01/03 02:08:07;;;;;;;12.52;7.60;;;;;;;4.02;100.00;102654.59;5122496;22;20025;-66
2023/01/03 02:10:51;;;;;;;10.80;7.57;;;;;;;4.00;100.00;102660.63;5008307;28;20077;-70
2023/01/03 02:13:19;;;;;;;12.23;7.85;;;;;;;3.96;100.00;102658.78;5010167;28;20459;-69
2023/01/03 02:16:19;;;;;;;12.07;8.10;;;;;;;3.95;100.00;102650.09;5010106;28;20037;-67
2023/01/03 02:18:47;;;;;;;15.93;10.07;;;;;;;3.98;100.00;102654.50;5008986;28;20021;-68
2023/01/03 02:21:34;;;;;;;17.92;8.98;;;;;;;3.92;100.00;102653.47;5009198;28;20092;-68
2023/01/03 02:24:05;;;;;;;13.93;8.80;;;;;;;3.85;100.00;102653.34;5009085;28;20471;-68
2023/01/03 02:27:23;;;;;;;18.98;9.18;;;;;;;3.79;100.00;102649.72;5008450;28;20041;-68
2023/01/03 02:30:10;;;;;;;15.23;8.65;;;;;;;3.75;100.00;102649.59;4980213;28;20073;-69
2023/01/03 02:32:49;;;;;;;15.30;8.48;;;;;;;3.69;100.00;102652.06;5009111;28;20026;-66
2023/01/03 02:35:35;;;;;;;14.00;8.57;;;;;;;3.63;100.00;102648.47;5008705;28;20029;-70
2023/01/03 02:38:02;;;;;;;17.33;9.30;;;;;;;3.61;100.00;102646.69;5008390;28;20087;-70
2023/01/03 02:41:13;;;;;;;15.60;10.70;;;;;;;3.62;100.00;102645.81;5009791;28;20017;-70
2023/01/03 02:43:50;;;;;;;17.92;11.10;;;;;;;3.63;100.00;102643.25;4992702;28;20026;-67
2023/01/03 02:46:52;;;;;;;24.42;13.93;;;;;;;3.67;100.00;102639.88;5008339;28;20498;-68
2023/01/03 02:49:31;;;;;;;28.98;14.20;;;;;;;3.71;100.00;102642.56;5000477;28;20117;-67
2023/01/03 02:52:15;;;;;;;33.33;17.55;;;;;;;3.88;100.00;102641.22;5008288;28;20534;-67
2023/01/03 02:55:20;;;;;;;89.30;19.40;;;;;;;3.94;100.00;102639.63;5008301;28;20112;-69
2023/01/03 02:57:49;;;;;;;42.55;16.92;;;;;;;3.97;100.00;102650.13;4952086;28;20788;-65
2023/01/03 03:00:19;;;;;;;136.82;23.02;;;;;;;3.96;100.00;102643.13;5001500;28;20389;-71
2023/01/03 03:02:50;;;;;;;132.98;22.40;;;;;;;3.98;100.00;102644.06;5007617;28;20040;-68
2023/01/03 03:05:21;;;;;;;48.65;18.73;;;;;;;3.98;100.00;102644.06;5009187;28;20032;-68
2023/01/03 03:07:46;;;;;;;132.10;20.63;;;;;;;3.97;100.00;102637.09;5008863;28;20425;-68
2023/01/03 03:13:12;;;;;;;27.58;16.20;;;;;;;3.95;100.00;102636.16;5007961;28;20048;-67
2023/01/03 03:15:52;;;;;;;45.90;17.50;;;;;;;3.86;100.00;102637.72;5008391;28;20357;-67
2023/01/03 03:18:23;;;;;;;35.00;17.92;;;;;;;3.87;100.00;102644.69;5008794;28;20037;-68
2023/01/03 03:26:25;;;;;;;37.65;18.00;;;;;;;3.81;100.00;102641.03;5008146;28;20096;-68
2023/01/03 03:28:56;;;;;;;54.40;20.48;;;;;;;3.76;100.00;102634.00;5007670;28;20076;-67
2023/01/03 03:31:29;;;;;;;32.75;17.20;;;;;;;3.73;100.00;102626.09;5006707;28;20109;-68
2023/01/03 03:34:17;;;;;;;36.42;18.20;;;;;;;3.69;100.00;102625.97;5006252;28;20034;-68
2023/01/03 03:36:57;;;;;;;29.90;17.60;;;;;;;3.61;100.00;102628.44;5008446;28;20034;-68
2023/01/03 03:45:16;;;;;;;29.15;16.02;;;;;;;3.45;100.00;102628.03;5007888;28;20140;-67
2023/01/03 03:48:07;;;;;;;33.17;16.88;;;;;;;3.40;100.00;102620.09;5007956;28;20029;-64
2023/01/03 03:50:47;;;;;;;35.58;17.52;;;;;;;3.37;100.00;102617.41;5007919;28;20026;-68
2023/01/03 03:53:13;;;;;;;36.78;18.55;;;;;;;3.40;100.00;102619.22;5007829;28;20065;-68
2023/01/03 03:55:43;;;;;;;36.15;18.77;;;;;;;3.39;100.00;102622.66;5007664;28;20040;-69
2023/01/03 03:58:21;;;;;;;37.03;18.50;;;;;;;3.39;100.00;102617.47;5023337;28;20036;-69
2023/01/03 04:00:48;;;;;;;35.28;20.15;;;;;;;3.43;100.00;102623.66;5008751;28;20026;-66
2023/01/03 04:03:14;;;;;;;45.95;21.15;;;;;;;3.46;100.00;102628.94;5007845;28;20038;-64
2023/01/03 04:05:45;;;;;;;49.53;21.65;;;;;;;3.45;100.00;102622.84;5008606;28;20026;-68
2023/01/03 04:08:10;;;;;;;44.42;21.35;;;;;;;3.53;100.00;102639.53;5007352;28;20037;-67
2023/01/03 04:10:36;;;;;;;45.75;22.10;;;;;;;3.61;100.00;102644.94;5008888;28;20030;-66
2023/01/03 04:13:01;;;;;;;54.60;23.95;;;;;;;3.67;100.00;102652.00;5006313;28;20089;-66
2023/01/03 04:15:26;;;;;;;46.97;22.73;;;;;;;3.76;100.00;102649.63;5010385;28;20505;-67
2023/01/03 04:17:52;;;;;;;48.60;23.08;;;;;;;3.76;100.00;102652.25;5011365;28;20032;-66
2023/01/03 04:20:18;;;;;;;53.70;24.38;;;;;;;3.83;100.00;102655.00;5012376;28;20033;-64
2023/01/03 04:22:43;;;;;;;48.95;24.10;;;;;;;3.84;100.00;102654.16;5011322;28;20057;-65
2023/01/03 04:25:08;;;;;;;48.67;23.45;;;;;;;3.85;100.00;102648.13;5012596;28;20025;-66
2023/01/03 04:27:34;;;;;;;51.60;24.77;;;;;;;3.84;100.00;102649.81;5010875;28;20471;-68
2023/01/03 04:29:59;;;;;;;45.53;22.20;;;;;;;3.87;100.00;102652.50;5012523;28;20038;-66
2023/01/03 04:32:24;;;;;;;53.00;23.80;;;;;;;3.85;100.00;102646.38;5011755;28;20034;-68
2023/01/03 04:34:50;;;;;;;47.35;23.45;;;;;;;3.82;100.00;102643.69;5011821;28;20075;-67
2023/01/03 04:37:15;;;;;;;55.58;25.40;;;;;;;3.76;100.00;102638.31;5012127;28;20124;-66
2023/01/03 04:39:41;;;;;;;57.13;26.50;;;;;;;3.73;100.00;102646.09;5010842;28;20026;-67
2023/01/03 04:44:00;;;;;;;49.83;24.05;;;;;;;3.73;100.00;102644.34;5010960;28;20125;-67
2023/01/03 04:44:52;;;;;;;43.90;23.80;;;;;;;3.76;100.00;102635.72;5003668;28;20042;-68
2023/01/03 04:47:18;;;;;;;46.83;22.83;;;;;;;3.74;100.00;102635.69;5011155;28;20079;-67
2023/01/03 04:49:47;;;;;;;47.42;24.20;;;;;;;3.69;100.00;102637.31;5011063;28;20110;-65
2023/01/03 04:52:13;;;;;;;53.17;25.85;;;;;;;3.67;100.00;102638.97;5011185;28;20029;-66
2023/01/03 04:54:39;;;;;;;39.25;22.80;;;;;;;3.69;100.00;102633.81;5010247;28;20074;-67
2023/01/03 04:57:04;;;;;;;42.20;22.38;;;;;;;3.68;100.00;102632.94;5011397;28;20037;-66
2023/01/03 04:59:30;;;;;;;48.95;24.35;;;;;;;3.66;100.00;102632.00;5005562;28;20370;-66
2023/01/03 05:01:55;;;;;;;43.22;22.73;;;;;;;3.64;100.00;102634.59;5010545;28;20034;-66
2023/01/03 05:04:20;;;;;;;39.40;22.17;;;;;;;3.69;100.00;102637.31;5008597;28;20123;-64
2023/01/03 05:06:46;;;;;;;40.58;21.80;;;;;;;3.67;100.00;102633.75;5011326;28;20165;-67
2023/01/03 05:09:11;;;;;;;47.28;24.08;;;;;;;3.69;100.00;102636.41;5016291;28;20038;-68
2023/01/03 05:11:36;;;;;;;50.15;23.63;;;;;;;3.65;100.00;102630.25;5017185;28;20029;-65
2023/01/03 05:14:02;;;;;;;41.53;20.73;;;;;;;3.62;100.00;102631.06;5007967;28;20028;-66
2023/01/03 05:16:27;;;;;;;36.85;20.70;;;;;;;3.60;100.00;102631.88;5002771;28;20027;-68
2023/01/03 05:18:53;;;;;;;39.92;21.25;;;;;;;3.59;100.00;102630.09;5010820;28;20475;-69
2023/01/03 05:26:52;;;;;;;42.35;20.98;;;;;;;3.53;100.00;102630.84;5011093;28;20475;-66
2023/01/03 05:29:19;;;;;;;44.13;22.13;;;;;;;3.58;100.00;102628.34;5009403;28;20022;-67
2023/01/03 05:31:44;;;;;;;44.50;21.83;;;;;;;3.64;100.00;102625.88;5008372;28;20113;-70
2023/01/03 05:34:10;;;;;;;43.50;22.08;;;;;;;3.66;100.00;102630.31;5005925;28;20516;-68
2023/01/03 05:36:35;;;;;;;52.20;25.83;;;;;;;3.64;100.00;102631.97;5007739;28;20026;-67
2023/01/03 05:39:00;;;;;;;50.85;24.75;;;;;;;3.70;100.00;102627.78;5004380;28;20030;-68
2023/01/03 05:44:10;;;;;;;48.22;27.05;;;;;;;3.81;100.00;102621.06;5009875;28;20898;-69
2023/01/03 05:46:35;;;;;;;55.72;27.08;;;;;;;3.88;100.00;102622.97;5009743;28;20026;-68
2023/01/03 05:49:01;;;;;;;51.20;25.98;;;;;;;3.92;100.00;102624.78;5009162;28;20026;-68
2023/01/03 05:51:26;;;;;;;55.42;26.90;;;;;;;4.07;100.00;102622.50;5009208;28;20025;-67
2023/01/03 05:53:52;;;;;;;53.95;28.17;;;;;;;4.11;100.00;102621.72;5009832;28;20025;-67
2023/01/03 05:56:17;;;;;;;63.72;30.00;;;;;;;4.13;100.00;102617.44;5010698;28;20483;-68
2023/01/03 05:58:43;;;;;;;56.97;27.63;;;;;;;4.21;100.00;102604.56;5008596;28;20463;-67
2023/01/03 06:01:09;;;;;;;52.47;30.48;;;;;;;4.26;100.00;102609.00;5008507;28;20026;-67
2023/01/03 06:03:35;;;;;;;60.20;30.10;;;;;;;4.30;100.00;102610.84;5010441;28;20030;-66
2023/01/03 06:06:08;;;;;;;61.10;31.75;;;;;;;4.41;100.00;102604.97;5009800;28;20030;-66
2023/01/03 06:08:34;;;;;;;57.85;29.33;;;;;;;4.49;100.00;102603.38;5010154;28;20107;-68
2023/01/03 06:11:04;;;;;;;58.33;29.90;;;;;;;4.53;100.00;102610.44;5009440;28;20025;-67
2023/01/03 06:13:30;;;;;;;58.45;29.05;;;;;;;4.57;100.00;102610.50;5010099;28;20064;-68
2023/01/03 06:18:45;;;;;;;57.63;28.60;;;;;;;4.49;100.00;102607.72;5009800;28;20044;-66
2023/01/03 06:21:10;;;;;;;54.67;28.88;;;;;;;4.56;100.00;102607.00;5008621;28;20018;-68
2023/01/03 06:23:36;;;;;;;64.15;29.95;;;;;;;4.58;100.00;102601.81;5010022;28;20041;-68
2023/01/03 06:26:02;;;;;;;49.33;27.20;;;;;;;4.59;100.00;102600.94;5009737;28;20042;-66
2023/01/03 06:28:28;;;;;;;54.88;27.88;;;;;;;4.58;100.00;102601.81;5020808;28;20625;-67
2023/01/03 06:30:54;;;;;;;46.97;26.60;;;;;;;4.68;100.00;102596.81;5028524;28;20117;-70
2023/01/03 06:33:19;;;;;;;47.35;27.15;;;;;;;4.75;100.00;102603.00;5009856;28;20026;-68
2023/01/03 06:35:44;;;;;;;47.55;25.58;;;;;;;4.76;100.00;102604.75;5008382;28;20165;-68
2023/01/03 06:38:10;;;;;;;50.92;26.92;;;;;;;4.73;100.00;102609.91;5007968;28;20034;-68
2023/01/03 06:40:35;;;;;;;53.42;26.13;;;;;;;4.72;100.00;102623.84;5008700;28;20026;-65
2023/01/03 06:43:01;;;;;;;48.50;25.45;;;;;;;4.83;100.00;102631.88;5008645;28;20030;-66
2023/01/03 06:53:40;;;;;;;50.30;24.00;;;;;;;5.00;100.00;102621.75;5007836;28;20037;-65
2023/01/03 06:56:06;;;;;;;39.47;23.48;;;;;;;5.00;100.00;102613.91;5006551;28;20103;-67
2023/01/03 06:58:31;;;;;;;41.10;23.55;;;;;;;5.00;100.00;102607.81;4990144;28;20472;-67
2023/01/03 07:00:58;;;;;;;38.80;23.40;;;;;;;5.06;100.00;102605.31;5007497;28;20499;-68
2023/01/03 07:03:23;;;;;;;47.00;23.42;;;;;;;5.06;100.00;102611.41;4990497;28;20105;-70
2023/01/03 07:05:49;;;;;;;45.58;23.35;;;;;;;5.03;100.00;102597.41;5008399;28;20285;-70
2023/01/03 07:08:14;;;;;;;45.97;22.75;;;;;;;5.14;100.00;102597.59;5007495;28;20097;-70
2023/01/03 07:10:40;;;;;;;39.50;21.15;;;;;;;5.20;100.00;102597.69;5008018;28;20500;-70
2023/01/03 07:15:49;;;;;;;37.80;21.73;;;;;;;5.26;100.00;102597.81;5006839;28;20130;-69
2023/01/03 07:18:14;;;;;;;36.33;19.85;;;;;;;5.34;100.00;102587.47;5007356;28;20026;-68
2023/01/03 07:20:41;;;;;;;38.85;21.60;;;;;;;5.29;100.00;102595.25;5007483;28;20246;-71
2023/01/03 07:23:07;;;;;;;37.53;22.00;;;;;;;5.25;100.00;102593.44;5008102;28;20037;-66
2023/01/03 07:25:32;;;;;;;35.92;21.38;;;;;;;5.31;100.00;102601.41;5008356;28;20034;-70
2023/01/03 07:27:57;;;;;;;40.75;20.23;;;;;;;5.28;100.00;102598.72;5007769;28;20025;-67
2023/01/03 07:30:23;;;;;;;36.25;20.95;;;;;;;5.28;100.00;102596.13;5007931;28;20022;-70
2023/01/03 07:32:48;;;;;;;40.47;21.23;;;;;;;5.30;100.00;102614.44;5007541;28;20030;-73
2023/01/03 07:35:14;;;;;;;39.08;21.05;;;;;;;5.34;100.00;102604.88;5006076;28;20027;-66
2023/01/03 07:37:39;;;;;;;41.83;21.02;;;;;;;5.24;100.00;102609.97;5006644;28;20040;-71
2023/01/03 07:40:05;;;;;;;39.45;21.23;;;;;;;5.28;100.00;102619.63;5005447;28;20014;-66
2023/01/03 07:45:14;;;;;;;35.25;20.40;;;;;;;5.39;100.00;102625.03;5007166;28;20076;-70
2023/01/03 07:47:44;;;;;;;34.95;21.25;;;;;;;5.34;100.00;102626.69;5006049;28;20029;-67
2023/01/03 07:50:09;;;;;;;38.85;20.25;;;;;;;5.44;100.00;102620.75;5004669;28;20057;-71
2023/01/03 07:52:35;;;;;;;39.75;20.70;;;;;;;5.47;100.00;102619.94;5007076;28;20025;-65
2023/01/03 07:55:00;;;;;;;46.00;21.23;;;;;;;5.53;100.00;102614.81;5006385;28;20418;-66
2023/01/03 07:57:28;;;;;;;39.00;20.95;;;;;;;5.53;100.00;102609.56;5023656;28;20331;-66
2023/01/03 07:59:53;;;;;;;33.15;19.67;;;;;;;5.62;100.00;102613.16;5025371;28;20356;-70
2023/01/03 08:02:19;;;;;;;33.55;19.77;;;;;;;5.64;100.00;102616.69;5025442;28;20033;-70
2023/01/03 08:04:44;;;;;;;37.03;20.85;;;;;;;5.56;100.00;102614.84;5026219;28;20020;-69
2023/01/03 08:07:10;;;;;;;46.33;21.02;;;;;;;5.68;100.00;102622.00;5026314;28;20226;-70
2023/01/03 08:15:03;;;;;;;43.20;20.73;;;;;;;5.72;100.00;102622.91;5023917;28;20096;-68
2023/01/03 08:17:28;;;;;;;36.13;19.15;;;;;;;5.90;100.00;102622.31;5025928;28;20037;-68
2023/01/03 08:19:53;;;;;;;41.58;19.70;;;;;;;6.01;100.00;102627.72;5025462;28;20061;-66
2023/01/03 08:22:19;;;;;;;40.78;19.58;;;;;;;6.00;100.00;102614.59;5024429;28;20022;-65
2023/01/03 08:24:44;;;;;;;28.15;18.20;;;;;;;6.11;100.00;102614.78;5025915;28;20029;-68
2023/01/03 08:27:09;;;;;;;38.80;19.23;;;;;;;6.07;100.00;102622.59;5025636;28;20032;-68
2023/01/03 08:29:35;;;;;;;32.67;19.20;;;;;;;5.99;100.00;102625.94;5025979;28;20025;-62
2023/01/03 08:32:01;;;;;;;32.13;18.05;;;;;;;6.04;100.00;102633.03;5025124;28;20471;-69
2023/01/03 08:34:29;;;;;;;36.67;19.67;;;;;;;6.22;100.00;102628.91;5026583;28;20026;-69
2023/01/03 08:36:59;;;;;;;33.67;18.25;;;;;;;6.20;100.00;102633.22;5000431;28;20032;-69
2023/01/03 08:39:28;;;;;;;30.23;17.45;;;;;;;6.28;100.00;102621.13;4991026;28;20030;-67
2023/01/03 08:41:59;;;;;;;40.47;19.38;;;;;;;6.29;100.00;102616.78;5006720;28;20109;-69
2023/01/03 08:44:25;;;;;;;35.50;18.02;;;;;;;6.38;100.00;102621.25;4990139;28;20057;-70
2023/01/03 08:46:53;;;;;;;35.08;18.02;;;;;;;6.42;100.00;102618.66;5007545;28;20022;-65
2023/01/03 08:49:19;;;;;;;33.72;18.77;;;;;;;6.47;100.00;102613.47;4990409;28;20026;-69
2023/01/03 08:51:44;;;;;;;31.90;18.27;;;;;;;6.50;100.00;102610.03;5020639;28;20029;-69
2023/01/03 08:54:10;;;;;;;37.28;17.90;;;;;;;6.52;100.00;102617.06;5027505;28;20034;-69
2023/01/03 08:56:35;;;;;;;34.20;18.77;;;;;;;6.60;100.00;102624.13;5021124;28;20372;-69
2023/01/03 08:59:00;;;;;;;40.08;19.00;;;;;;;6.57;100.00;102623.22;5008657;28;20413;-69
2023/01/03 09:01:26;;;;;;;35.83;19.23;;;;;;;6.66;100.00;102621.56;5020146;28;20459;-68
2023/01/03 09:03:51;;;;;;;38.08;18.45;;;;;;;6.79;100.00;102617.34;5012593;28;20468;-69
2023/01/03 09:06:17;;;;;;;34.53;19.45;;;;;;;6.83;100.00;102625.25;5030081;28;20699;-64
2023/01/03 09:08:43;;;;;;;39.35;20.40;;;;;;;6.86;100.00;102624.41;5013137;28;20041;-69
2023/01/03 09:11:08;;;;;;;35.00;20.23;;;;;;;6.90;100.00;102617.47;5029847;28;20375;-67
2023/01/03 09:13:34;;;;;;;35.63;21.08;;;;;;;6.94;100.00;102619.25;5030594;28;20066;-67
2023/01/03 09:16:10;;;;;;;40.15;21.00;;;;;;;7.04;100.00;102617.56;5029428;28;20029;-69
2023/01/03 09:18:36;;;;;;;45.83;21.50;;;;;;;7.06;100.00;102616.75;5030561;28;20033;-66
2023/01/03 09:21:04;;;;;;;39.33;22.02;;;;;;;7.00;100.00;102610.56;5030170;28;20018;-67
2023/01/03 09:23:30;;;;;;;38.67;21.73;;;;;;;7.15;100.00;102615.06;5029584;28;20101;-69
2023/01/03 09:25:56;;;;;;;36.70;21.75;;;;;;;7.16;100.00;102611.56;5028470;28;20145;-69
2023/01/03 09:28:21;;;;;;;50.03;22.88;;;;;;;7.19;100.00;102617.72;5029340;28;20025;-70
2023/01/03 09:30:47;;;;;;;49.55;23.55;;;;;;;7.29;100.00;102613.44;5043852;28;20033;-69
2023/01/03 09:33:12;;;;;;;39.20;21.77;;;;;;;7.25;100.00;102619.53;5027989;28;20021;-69
2023/01/03 09:35:37;;;;;;;39.53;21.25;;;;;;;7.33;100.00;102614.34;5029639;28;20022;-68
2023/01/03 09:38:03;;;;;;;43.83;22.88;;;;;;;7.40;100.00;102605.66;5006553;28;20032;-69
2023/01/03 09:40:29;;;;;;;43.70;21.80;;;;;;;7.42;100.00;102608.31;5028489;28;20234;-69
2023/01/03 09:43:14;;;;;;;42.35;22.60;;;;;;;7.50;100.00;102608.38;5008861;28;20033;-67
2023/01/03 09:45:42;;;;;;;46.95;21.90;;;;;;;7.54;100.00;102608.41;5038279;28;20137;-68
2023/01/03 09:48:11;;;;;;;39.80;22.52;;;;;;;7.57;100.00;102607.53;5027057;28;20088;-68
2023/01/03 09:50:37;;;;;;;41.47;21.63;;;;;;;7.69;100.00;102612.00;5028127;28;20029;-68
2023/01/03 10:04:46;;;;;;;37.05;19.40;;;;;;;7.88;100.00;102639.22;5014085;28;20071;-70
2023/01/03 10:07:26;;;;;;;39.45;19.83;;;;;;;7.89;100.00;102635.72;5025115;28;20409;-65
2023/01/03 10:10:10;;;;;;;41.53;20.60;;;;;;;8.02;100.00;102634.09;5016222;28;20038;-70
2023/01/03 10:13:04;;;;;;;33.60;18.77;;;;;;;8.02;100.00;102630.56;5026089;28;20033;-69
2023/01/03 10:15:34;;;;;;;37.40;18.40;;;;;;;8.06;100.00;102633.22;5025357;28;20037;-68
2023/01/03 10:18:16;;;;;;;38.42;19.45;;;;;;;8.01;100.00;102629.69;5026868;28;20391;-68
2023/01/03 10:20:48;;;;;;;53.72;19.77;;;;;;;8.11;100.00;102635.00;5015158;28;20488;-65
2023/01/03 10:23:13;;;;;;;39.30;19.23;;;;;;;8.18;100.00;102627.16;5017115;28;20052;-69
2023/01/03 10:25:42;;;;;;;36.35;19.05;;;;;;;8.30;100.00;102635.94;5028742;28;20022;-68
2023/01/03 10:28:16;;;;;;;33.03;17.77;;;;;;;8.38;100.00;102623.75;5019649;28;20033;-70
2023/01/03 10:30:50;;;;;;;26.05;15.18;;;;;;;8.42;100.00;102624.63;5008295;28;20273;-68
2023/01/03 10:33:27;;;;;;;35.28;15.35;;;;;;;8.48;100.00;102643.03;5024132;28;20033;-68
2023/01/03 10:35:52;;;;;;;30.48;15.40;;;;;;;8.55;100.00;102626.47;5025866;28;20103;-67
2023/01/03 10:38:21;;;;;;;34.00;15.10;;;;;;;8.43;100.00;102637.75;5011202;28;20387;-68
2023/01/03 10:40:50;;;;;;;33.53;15.00;;;;;;;8.56;100.00;102636.13;5029232;28;20030;-69
2023/01/03 10:43:39;;;;;;;37.28;15.70;;;;;;;8.57;100.00;102635.25;5044426;28;20123;-68
2023/01/03 10:46:13;;;;;;;29.38;16.02;;;;;;;8.63;100.00;102633.47;5021749;28;20052;-69
2023/01/03 10:48:41;;;;;;;36.85;16.70;;;;;;;8.56;100.00;102644.00;5026540;28;20374;-67
2023/01/03 10:51:34;;;;;;;30.15;15.50;;;;;;;8.67;100.00;102635.28;5025981;28;20112;-68
2023/01/03 10:54:10;;;;;;;27.42;14.45;;;;;;;8.59;100.00;102632.63;5026839;28;20026;-64
2023/01/03 10:56:35;;;;;;;30.90;15.10;;;;;;;8.66;100.00;102629.13;5027121;28;20096;-64
2023/01/03 10:59:26;;;;;;;29.25;15.05;;;;;;;8.72;100.00;102629.16;5027569;28;20539;-66
2023/01/03 11:02:15;;;;;;;30.20;14.98;;;;;;;8.75;100.00;102628.28;5027004;28;20050;-68
2023/01/03 11:04:41;;;;;;;29.10;15.30;;;;;;;8.82;100.00;102623.94;5028050;28;20570;-67
2023/01/03 11:07:12;;;;;;;24.17;14.25;;;;;;;8.89;100.00;102627.44;5009992;28;20033;-68
2023/01/03 11:09:55;;;;;;;26.30;15.20;;;;;;;8.74;100.00;102626.53;5026808;28;20084;-71
2023/01/03 11:12:38;;;;;;;35.45;15.32;;;;;;;8.71;100.00;102621.25;5009671;28;20048;-70
2023/01/03 11:15:14;;;;;;;26.05;14.10;;;;;;;8.76;100.00;102609.00;5025226;28;20017;-68
2023/01/03 11:18:16;;;;;;;31.80;14.82;;;;;;;8.90;100.00;102610.78;5027767;28;20025;-68
2023/01/03 11:21:03;;;;;;;33.47;12.98;;;;;;;8.98;100.00;102603.78;4947017;28;20540;-67
2023/01/03 11:23:48;;;;;;;28.67;13.27;;;;;;;8.98;100.00;102602.03;5022281;28;20044;-68
2023/01/03 11:26:22;;;;;;;20.40;11.77;;;;;;;9.06;100.00;102602.03;5027504;28;20045;-67
2023/01/03 11:28:57;;;;;;;22.27;11.50;;;;;;;8.98;100.00;102602.03;5026226;28;20116;-69
2023/01/03 11:31:33;;;;;;;22.40;11.52;;;;;;;8.96;100.00;102595.00;5008664;28;20052;-68
2023/01/03 11:34:10;;;;;;;20.50;11.10;;;;;;;8.88;100.00;102591.50;5008432;28;20091;-69
2023/01/03 11:36:47;;;;;;;27.83;12.00;;;;;;;8.96;100.00;102582.75;5009649;28;20040;-67
2023/01/03 11:39:17;;;;;;;22.75;11.38;;;;;;;8.88;100.00;102588.88;5009001;28;20463;-68
2023/01/03 11:41:54;;;;;;;17.50;10.68;;;;;;;9.06;100.00;102585.41;5009390;28;20017;-69
2023/01/03 11:44:51;;;;;;;19.08;9.93;;;;;;;9.09;100.00;102581.00;5025492;28;20029;-66
2023/01/03 11:47:31;;;;;;;20.17;9.60;;;;;;;9.09;100.00;102586.25;5025938;28;20045;-70
2023/01/03 11:50:08;;;;;;;20.27;9.75;;;;;;;9.06;100.00;102582.78;5005697;28;20125;-67
2023/01/03 11:52:42;;;;;;;20.33;10.18;;;;;;;9.01;100.00;102574.88;5027416;28;20021;-67
2023/01/03 11:55:36;;;;;;;14.70;9.15;;;;;;;9.14;100.00;102566.97;5025735;28;20455;-69
2023/01/03 11:58:22;;;;;;;17.85;9.02;;;;;;;9.18;100.00;102574.88;5019164;28;20041;-69
2023/01/03 12:01:03;;;;;;;13.68;8.07;;;;;;;9.33;100.00;102558.19;5025785;28;20041;-70
2023/01/03 12:03:46;;;;;;;14.60;9.77;;;;;;;9.35;100.00;102553.81;5026350;28;20386;-68
2023/01/03 12:06:27;;;;;;;17.23;8.25;;;;;;;9.46;100.00;102559.03;5026550;28;20030;-68
2023/01/03 12:09:13;;;;;;;18.00;8.02;;;;;;;9.49;100.00;102552.94;5024498;28;20080;-68
2023/01/03 12:11:46;;;;;;;15.32;7.85;;;;;;;9.50;100.00;102543.25;5024884;28;20036;-71
2023/01/03 12:14:20;;;;;;;13.90;7.38;;;;;;;9.53;100.00;102543.25;5009004;28;20038;-70
2023/01/03 12:17:04;;;;;;;17.88;7.22;;;;;;;9.49;100.00;102539.78;5008199;28;20028;-68
2023/01/03 12:19:45;;;;;;;12.60;6.60;;;;;;;9.39;100.00;102545.94;5026939;28;20036;-68
2023/01/03 12:22:41;;;;;;;10.25;6.35;;;;;;;9.51;100.00;102540.63;5025150;28;20234;-69
2023/01/03 12:25:18;;;;;;;17.35;6.53;;;;;;;9.72;100.00;102538.81;5000494;28;20033;-65
2023/01/03 12:27:47;;;;;;;10.45;5.72;;;;;;;9.68;100.00;102531.81;5010003;28;20061;-69
2023/01/03 12:30:30;;;;;;;13.65;5.90;;;;;;;9.86;100.00;102539.66;5025840;28;20022;-70